Thursday, June 21, 2018, 6:27 AM EDT
Back to Local

KEWN, New Bern, Craven County Regional Airport

Location: New Bern, NC, United States Lat: 35.068
Local Time: 6:27 AM EDT (10:27 GMT) Lon: -77.047
Time Zone: US/Eastern Elev: 16 ft

Show me the last for .
Show Decoded

2018-06-21 05:54 METAR KEWN 210954Z 22005KT 7SM FEW120 23/23 A2980 RMK AO2 SLP092 T02280228 =
2018-06-21 04:54 METAR KEWN 210854Z AUTO 25004KT 8SM CLR 24/23 A2980 RMK AO2 RAE20 SLP090 P0000
                 60000 T02390228 56012 =
2018-06-21 03:54 METAR KEWN 210754Z AUTO 21004KT 9SM -RA CLR 23/23 A2981 RMK AO2 RAB07E17B48
                 SLP093 P0000 T02330233 =
2018-06-21 02:54 METAR KEWN 210654Z AUTO 20003KT 9SM CLR 23/23 A2982 RMK AO2 RAB0555E22 SLP097
                 P0000 T02330233 =
2018-06-21 01:54 METAR KEWN 210554Z AUTO 00000KT 10SM SCT110 24/23 A2984 RMK AO2 SLP103 60000
                 T02440233 10267 20239 58013 =
2018-06-21 00:54 METAR KEWN 210454Z AUTO 16005KT 10SM CLR 24/23 A2985 RMK AO2 RAB00E15 SLP106
                 P0000 T02390228 403390228 =
2018-06-21 00:10 METAR KEWN 210410Z AUTO 13004KT 10SM -RA FEW042 24/23 A2986 RMK AO2 RAB00 P0000
                 T02390228 =
2018-06-20 23:54 METAR KEWN 210354Z AUTO 11003KT 10SM VCTS CLR 24/23 A2987 RMK AO2 LTG DSNT E
                 SLP114 T02440228 =
2018-06-20 23:25 METAR KEWN 210325Z AUTO 08006KT 10SM FEW017 SCT026 25/23 A2987 RMK AO2 LTG DSNT
                 E AND S T02500228 =
2018-06-20 23:12 METAR KEWN 210312Z AUTO 03011G17KT 10SM FEW017 BKN026 BKN046 25/23 A2988 RMK AO2
                 T02500233 =
2018-06-20 22:54 METAR KEWN 210254Z AUTO 00000KT 10SM SCT046 BKN090 BKN110 26/24 A2987 RMK AO2
                 LTG DSNT NE SLP116 T02610239 53019 =
2018-06-20 21:54 METAR KEWN 210154Z AUTO 21003KT 10SM CLR 26/23 A2983 RMK AO2 SLP102 T02560233 =
2018-06-20 20:54 METAR KEWN 210054Z 21005KT 10SM CLR 26/23 A2982 RMK AO2 SLP097 T02610233 =
2018-06-20 20:12 METAR KEWN 210012Z 00000KT 10SM FEW002 27/23 A2982 RMK AO2 T02670233 =
2018-06-20 19:54 METAR KEWN 202354Z 00000KT 10SM CLR 27/23 A2982 RMK AO2 SLP097 T02670233 10339
                 20267 53001 =
2018-06-20 18:54 METAR KEWN 202254Z 17006KT 9SM CLR 28/24 A2981 RMK AO2 SLP095 T02830244 =
2018-06-20 17:54 METAR KEWN 202154Z 17007KT 9SM CLR 28/24 A2980 RMK AO2 LTG DSNT NE AND E SLP090
                 T02830239 =
2018-06-20 16:54 METAR KEWN 202054Z 20013KT 10SM FEW048 29/23 A2981 RMK AO2 LTG DSNT E SLP095
                 T02940233 56016 =
2018-06-20 16:44 METAR KEWN 202044Z 20007KT 10SM VCTS SCT050 31/24 A2982 RMK AO2 LTG DSNT E AND S
                 T03060239 =
2018-06-20 15:54 METAR KEWN 201954Z 22003KT 10SM SCT046 32/24 A2983 RMK AO2 LTG DSNT S SLP101
                 T03220239 =
2018-06-20 14:54 METAR KEWN 201854Z 00000KT 10SM FEW042 33/24 A2984 RMK AO2 SLP104 T03330239 =
2018-06-20 13:54 METAR KEWN 201754Z 03006KT 10SM CLR 33/24 A2986 RMK AO2 SLP112 T03280239 10328
                 20261 58010 =
2018-06-20 12:54 METAR KEWN 201654Z VRB03KT 10SM CLR 32/23 A2988 RMK AO2 SLP116 T03170233 =
2018-06-20 11:54 METAR KEWN 201554Z 00000KT 10SM CLR 31/23 A2988 RMK AO2 SLP119 T03060233 =
2018-06-20 10:54 METAR KEWN 201454Z 00000KT 10SM CLR 29/23 A2989 RMK AO2 SLP122 T02940233 53001 =
2018-06-20 09:54 METAR KEWN 201354Z 00000KT 10SM CLR 28/23 A2989 RMK AO2 SLP120 T02830228 =
2018-06-20 08:54 METAR KEWN 201254Z 00000KT 10SM CLR 27/23 A2989 RMK AO2 SLP121 T02720233 =
2018-06-20 07:54 METAR KEWN 201154Z 34004KT 8SM CLR 26/23 A2989 RMK AO2 SLP121 T02610233 10261
                 20228 53011 =
2018-06-20 06:54 METAR KEWN 201054Z 05003KT 3SM BR CLR 23/23 A2988 RMK AO2 SLP116 T02330233 =

Support USWX by starting your Amazon purchase here.